createdAt,value
2018-06-12T00:00:20.061Z,19.83
2018-06-12T00:02:48.644Z,18.10
2018-06-12T00:05:17.113Z,20.27
2018-06-12T00:07:45.574Z,17.90
2018-06-12T00:10:14.038Z,18.10
2018-06-12T00:12:42.480Z,19.10
2018-06-12T00:15:10.895Z,20.90
2018-06-12T00:17:39.339Z,17.10
2018-06-12T00:20:07.764Z,16.00
2018-06-12T00:22:36.251Z,16.00
2018-06-12T00:25:04.816Z,16.17
2018-06-12T00:27:33.257Z,15.83
2018-06-12T00:30:01.777Z,14.77
2018-06-12T00:32:30.199Z,14.73
2018-06-12T00:34:58.604Z,14.80
2018-06-12T00:37:26.996Z,14.80
2018-06-12T00:39:55.415Z,15.80
2018-06-12T00:42:23.884Z,16.40
2018-06-12T00:44:52.314Z,15.60
2018-06-12T00:47:20.786Z,16.50
2018-06-12T00:49:49.217Z,14.50
2018-06-12T00:52:17.667Z,17.17
2018-06-12T00:54:46.107Z,16.93
2018-06-12T00:57:14.570Z,16.80
2018-06-12T00:59:43.111Z,17.33
2018-06-12T01:02:11.546Z,17.37
2018-06-12T01:04:39.983Z,17.77
2018-06-12T01:07:08.413Z,18.50
2018-06-12T01:09:36.832Z,18.43
2018-06-12T01:12:05.397Z,18.67
2018-06-12T01:14:33.800Z,18.50
2018-06-12T01:17:02.260Z,17.53
2018-06-12T01:19:30.711Z,18.60
2018-06-12T01:21:59.197Z,17.97
2018-06-12T01:24:27.637Z,19.77
2018-06-12T01:26:56.053Z,20.07
2018-06-12T01:29:24.655Z,18.60
2018-06-12T01:31:53.195Z,19.13
2018-06-12T01:34:21.657Z,19.60
2018-06-12T01:36:50.072Z,20.30
2018-06-12T01:39:18.459Z,21.90
2018-06-12T01:41:46.879Z,20.47
2018-06-12T01:44:15.320Z,23.20
2018-06-12T01:46:43.728Z,21.60
2018-06-12T01:49:12.183Z,20.17
2018-06-12T01:51:40.651Z,20.63
2018-06-12T01:54:09.145Z,21.50
2018-06-12T01:56:37.693Z,21.37
2018-06-12T01:59:06.100Z,23.00
2018-06-12T02:01:34.645Z,22.83
2018-06-12T02:04:03.330Z,22.87
2018-06-12T02:06:31.896Z,22.67
2018-06-12T02:09:00.345Z,23.17
2018-06-12T02:11:28.752Z,21.77
2018-06-12T02:13:57.235Z,22.93
2018-06-12T02:16:25.926Z,24.70
2018-06-12T02:18:54.422Z,22.97
2018-06-12T02:21:22.896Z,23.57
2018-06-12T02:23:51.571Z,24.87
2018-06-12T02:26:19.996Z,23.63
2018-06-12T02:28:48.448Z,25.97
2018-06-12T02:31:16.891Z,25.27
2018-06-12T02:33:45.522Z,26.50
2018-06-12T02:36:13.977Z,26.90
2018-06-12T02:38:42.388Z,26.20
2018-06-12T02:41:10.840Z,25.87
2018-06-12T02:43:39.256Z,25.13
2018-06-12T02:46:07.704Z,27.23
2018-06-12T02:48:36.177Z,26.57
2018-06-12T02:51:04.953Z,26.63
2018-06-12T02:53:33.400Z,27.50
2018-06-12T02:56:02.142Z,26.53
2018-06-12T02:58:30.660Z,27.20
2018-06-12T03:00:59.091Z,25.60
2018-06-12T03:03:27.616Z,27.20
2018-06-12T03:05:56.077Z,29.67
2018-06-12T03:08:24.553Z,26.27
2018-06-12T03:10:53.053Z,27.10
2018-06-12T03:13:21.446Z,27.10
2018-06-12T03:15:49.825Z,28.13
2018-06-12T03:18:17.929Z,27.13
2018-06-12T03:20:47.288Z,27.80
2018-06-12T03:23:16.819Z,28.27
2018-06-12T03:25:49.692Z,29.27
2018-06-12T03:28:18.689Z,27.27
2018-06-12T03:30:47.145Z,26.90
2018-06-12T03:33:15.578Z,28.70
2018-06-12T03:35:45.213Z,28.53
2018-06-12T03:38:13.693Z,27.10
2018-06-12T03:40:42.203Z,28.67
2018-06-12T03:43:10.637Z,27.00
2018-06-12T03:45:39.060Z,29.90
2018-06-12T03:48:07.515Z,28.87
2018-06-12T03:50:35.979Z,27.93
2018-06-12T03:53:04.860Z,29.77
2018-06-12T03:55:33.304Z,25.60
2018-06-12T03:58:01.822Z,26.90
2018-06-12T04:00:30.456Z,26.83
2018-06-12T04:02:58.889Z,31.40
2018-06-12T04:05:27.415Z,26.83
2018-06-12T04:07:55.836Z,27.17
2018-06-12T04:10:24.344Z,25.47
2018-06-12T04:12:52.910Z,28.87
2018-06-12T04:15:21.413Z,27.10
2018-06-12T04:17:49.885Z,27.83
2018-06-12T04:20:18.337Z,27.83
2018-06-12T04:22:46.820Z,27.10
2018-06-12T04:25:15.310Z,28.57
2018-06-12T04:27:43.741Z,29.00
2018-06-12T04:30:12.308Z,27.20
2018-06-12T04:32:40.781Z,28.13
2018-06-12T04:35:09.319Z,27.73
2018-06-12T04:37:37.740Z,27.00
2018-06-12T04:40:06.473Z,28.90
2018-06-12T04:42:34.945Z,27.20
2018-06-12T04:45:03.404Z,27.60
2018-06-12T04:47:31.879Z,26.30
2018-06-12T04:50:00.352Z,26.33
2018-06-12T04:52:28.797Z,26.53
2018-06-12T04:54:57.283Z,28.37
2018-06-12T04:57:25.841Z,30.80
2018-06-12T04:59:54.371Z,29.90
2018-06-12T05:02:22.830Z,28.73
2018-06-12T05:04:51.333Z,28.30
2018-06-12T05:07:19.542Z,27.97
2018-06-12T05:09:48.034Z,24.10
2018-06-12T05:12:16.495Z,28.23
2018-06-12T05:14:44.933Z,27.17
2018-06-12T05:17:13.461Z,28.10
2018-06-12T05:19:42.168Z,28.60
2018-06-12T05:22:10.587Z,27.20
2018-06-12T05:24:39.040Z,30.23
2018-06-12T05:27:07.651Z,27.30
2018-06-12T05:29:36.193Z,28.53
2018-06-12T05:32:04.750Z,27.43
2018-06-12T05:34:33.221Z,28.67
2018-06-12T05:37:01.678Z,28.20
2018-06-12T05:39:30.161Z,28.70
2018-06-12T05:41:58.723Z,28.10
2018-06-12T05:44:27.161Z,28.50
2018-06-12T05:46:55.607Z,29.27
2018-06-12T05:49:24.072Z,30.33
2018-06-12T05:51:52.541Z,28.67
2018-06-12T05:54:21.284Z,29.90
2018-06-12T05:56:49.727Z,31.00
2018-06-12T05:59:18.229Z,30.97
2018-06-12T06:01:47.258Z,31.80
2018-06-12T06:04:15.702Z,32.70
2018-06-12T06:06:44.157Z,30.73
2018-06-12T06:09:12.612Z,32.07
2018-06-12T06:11:41.080Z,31.33
2018-06-12T06:14:09.520Z,31.27
2018-06-12T06:16:38.490Z,33.13
2018-06-12T06:19:07.132Z,32.37
2018-06-12T06:21:35.600Z,33.03
2018-06-12T06:24:04.128Z,33.97
2018-06-12T06:26:32.771Z,31.70
2018-06-12T06:29:01.250Z,33.00
2018-06-12T06:31:29.691Z,32.70
2018-06-12T06:33:58.121Z,35.50
2018-06-12T06:36:26.540Z,30.73
2018-06-12T06:38:54.962Z,32.47
2018-06-12T06:41:23.395Z,35.53
2018-06-12T06:43:51.843Z,33.50
2018-06-12T06:46:32.620Z,33.83
2018-06-12T06:49:01.440Z,32.73
2018-06-12T06:51:29.867Z,38.13
2018-06-12T06:53:58.339Z,35.20
2018-06-12T06:56:26.962Z,32.63
2018-06-12T06:58:55.451Z,33.43
2018-06-12T07:01:23.892Z,36.00
2018-06-12T07:03:52.372Z,30.53
2018-06-12T07:06:20.853Z,36.43
2018-06-12T07:08:49.416Z,39.57
2018-06-12T07:11:18.014Z,38.27
2018-06-12T07:13:46.616Z,40.70
2018-06-12T07:16:15.026Z,34.50
2018-06-12T07:18:43.482Z,36.97
2018-06-12T07:21:18.573Z,35.63
2018-06-12T07:23:47.280Z,37.97
2018-06-12T07:26:15.860Z,38.43
2018-06-12T07:28:44.414Z,40.30
2018-06-12T07:31:12.907Z,37.13
2018-06-12T07:33:41.380Z,43.93
2018-06-12T07:36:09.975Z,38.40
2018-06-12T07:38:38.461Z,41.10
2018-06-12T07:41:07.145Z,40.37
2018-06-12T07:43:35.637Z,37.40
2018-06-12T07:46:04.340Z,40.57
2018-06-12T07:48:32.925Z,42.07
2018-06-12T07:51:01.369Z,36.87
2018-06-12T07:53:29.808Z,39.33
2018-06-12T07:55:58.249Z,40.87
2018-06-12T07:58:26.721Z,39.20
2018-06-12T08:00:55.193Z,37.23
2018-06-12T08:03:23.601Z,37.67
2018-06-12T08:05:52.204Z,38.40
2018-06-12T08:08:20.631Z,39.90
2018-06-12T08:10:49.177Z,39.00
2018-06-12T08:13:17.920Z,36.57
2018-06-12T08:15:46.347Z,40.63
2018-06-12T08:18:14.770Z,42.10
2018-06-12T08:20:43.218Z,38.47
2018-06-12T08:23:11.738Z,39.13
2018-06-12T08:25:40.822Z,33.60
2018-06-12T08:28:09.417Z,34.47
2018-06-12T08:30:37.928Z,35.60
2018-06-12T08:33:06.413Z,37.37
2018-06-12T08:35:34.898Z,36.07
2018-06-12T08:38:03.330Z,36.40
2018-06-12T08:40:31.816Z,34.83
2018-06-12T08:43:00.265Z,30.40
2018-06-12T08:45:28.865Z,36.07
2018-06-12T08:47:57.292Z,35.87
2018-06-12T08:50:25.764Z,35.40
2018-06-12T08:52:54.189Z,38.30
2018-06-12T08:55:22.641Z,34.40
2018-06-12T08:57:51.122Z,36.77
2018-06-12T09:00:19.593Z,33.23
2018-06-12T09:02:48.053Z,35.10
2018-06-12T09:05:16.445Z,35.63
2018-06-12T09:07:44.932Z,34.37
2018-06-12T09:10:13.343Z,34.57
2018-06-12T09:12:41.982Z,33.10
2018-06-12T09:15:10.454Z,34.30
2018-06-12T09:17:38.911Z,36.50
2018-06-12T09:20:07.385Z,31.37
2018-06-12T09:22:35.888Z,35.37
2018-06-12T09:25:04.424Z,32.37
2018-06-12T09:27:38.239Z,33.67
2018-06-12T09:30:06.737Z,35.80
2018-06-12T09:32:35.410Z,33.03
2018-06-12T09:35:03.952Z,34.83
2018-06-12T09:37:32.410Z,32.53
2018-06-12T09:40:00.923Z,35.00
2018-06-12T09:42:29.534Z,32.47
2018-06-12T09:44:58.204Z,31.73
2018-06-12T09:47:26.785Z,30.43
2018-06-12T09:49:55.228Z,33.30
2018-06-12T09:52:25.272Z,31.20
2018-06-12T09:54:54.860Z,32.17
2018-06-12T09:57:23.895Z,31.53
2018-06-12T09:59:52.549Z,30.80
2018-06-12T10:02:21.033Z,30.13
2018-06-12T10:04:49.681Z,30.97
2018-06-12T10:07:18.112Z,29.10
2018-06-12T10:09:46.767Z,29.27
2018-06-12T10:12:15.268Z,29.20
2018-06-12T10:14:43.794Z,29.00
2018-06-12T10:17:12.637Z,28.13
2018-06-12T10:19:41.147Z,28.50
2018-06-12T10:22:09.784Z,29.50
2018-06-12T10:24:38.658Z,29.70
2018-06-12T10:27:07.209Z,26.83
2018-06-12T10:29:35.375Z,26.20
2018-06-12T10:32:04.365Z,26.87
2018-06-12T10:34:32.840Z,25.77
2018-06-12T10:37:01.561Z,25.50
2018-06-12T10:39:30.250Z,25.13
2018-06-12T10:41:58.801Z,25.87
2018-06-12T10:44:27.554Z,27.67
2018-06-12T10:46:56.035Z,24.77
2018-06-12T10:49:27.112Z,26.67
2018-06-12T10:51:56.013Z,28.00
2018-06-12T10:54:24.683Z,25.73
2018-06-12T10:56:53.379Z,26.70
2018-06-12T10:59:21.996Z,26.40
2018-06-12T11:01:50.445Z,28.37
2018-06-12T11:04:18.922Z,27.40
2018-06-12T11:06:47.393Z,26.40
2018-06-12T11:09:15.885Z,24.40
2018-06-12T11:11:44.552Z,29.27
2018-06-12T11:14:13.108Z,28.13
2018-06-12T11:16:41.657Z,27.87
2018-06-12T11:19:10.293Z,30.90
2018-06-12T11:21:39.370Z,29.80
2018-06-12T11:24:07.983Z,31.03
2018-06-12T11:26:36.592Z,31.37
2018-06-12T11:29:05.107Z,29.33
2018-06-12T11:31:33.584Z,32.23
2018-06-12T11:34:02.049Z,37.13
2018-06-12T11:36:30.528Z,33.80
2018-06-12T11:38:59.194Z,31.03
2018-06-12T11:41:27.611Z,33.57
2018-06-12T11:43:56.432Z,33.00
2018-06-12T11:46:24.854Z,32.60
2018-06-12T11:48:54.197Z,30.67
2018-06-12T12:04:22.150Z,31.73
2018-06-12T12:06:51.485Z,31.60
2018-06-12T12:09:19.955Z,29.93
2018-06-12T12:11:48.466Z,31.60
2018-06-12T12:14:16.852Z,30.03
2018-06-12T12:16:45.412Z,30.10
2018-06-12T12:19:13.880Z,29.90
2018-06-12T12:21:42.526Z,26.93
2018-06-12T12:24:10.979Z,30.43
2018-06-12T12:26:39.423Z,30.97
2018-06-12T12:29:08.121Z,28.10
2018-06-12T12:31:36.567Z,30.50
2018-06-12T12:34:05.369Z,29.23
2018-06-12T12:36:33.800Z,30.50
2018-06-12T12:39:02.227Z,27.97
2018-06-12T12:41:30.647Z,28.80
2018-06-12T12:43:59.054Z,29.83
2018-06-12T12:46:27.508Z,28.97
2018-06-12T12:48:55.950Z,27.93
2018-06-12T12:51:24.386Z,28.93
2018-06-12T12:53:52.831Z,28.00
2018-06-12T12:56:21.056Z,26.73
2018-06-12T12:58:49.564Z,27.67
2018-06-12T13:01:17.988Z,27.80
2018-06-12T13:03:46.492Z,25.63
2018-06-12T13:06:15.168Z,29.97
2018-06-12T13:08:43.614Z,26.97
2018-06-12T13:11:12.084Z,26.00
2018-06-12T13:13:40.557Z,29.13
2018-06-12T13:16:09.088Z,26.63
2018-06-12T13:18:37.533Z,27.87
2018-06-12T13:21:05.950Z,27.40
2018-06-12T13:23:34.424Z,26.67
2018-06-12T13:26:02.878Z,27.97
2018-06-12T13:28:31.845Z,31.87
2018-06-12T13:31:00.925Z,26.90
2018-06-12T13:33:29.337Z,27.07
2018-06-12T13:35:57.766Z,26.87
2018-06-12T13:38:26.188Z,27.23
2018-06-12T13:40:54.668Z,27.83
2018-06-12T13:43:23.125Z,24.20
2018-06-12T13:45:51.586Z,26.10
2018-06-12T13:48:20.008Z,25.90
2018-06-12T13:50:48.684Z,26.07
2018-06-12T13:53:17.318Z,26.97
2018-06-12T13:55:46.157Z,26.13
2018-06-12T13:58:14.651Z,27.30
2018-06-12T14:00:43.192Z,26.30
2018-06-12T14:03:11.673Z,33.87
2018-06-12T14:05:40.155Z,32.67
2018-06-12T14:08:08.610Z,31.23
2018-06-12T14:10:37.066Z,30.53
2018-06-12T14:13:05.525Z,32.40
2018-06-12T14:15:33.980Z,29.00
2018-06-12T14:18:02.448Z,30.67
2018-06-12T14:20:30.969Z,30.57
2018-06-12T14:22:59.849Z,30.27
2018-06-12T14:25:28.396Z,30.27
2018-06-12T14:27:56.945Z,32.10
2018-06-12T14:30:25.401Z,29.80
2018-06-12T14:32:53.882Z,28.37
2018-06-12T14:35:22.321Z,28.27
2018-06-12T14:37:50.932Z,28.23
2018-06-12T14:40:19.410Z,27.37
2018-06-12T14:42:47.859Z,27.17
2018-06-12T14:45:16.341Z,28.83
2018-06-12T14:47:44.831Z,27.40
2018-06-12T14:50:13.716Z,24.50
2018-06-12T14:52:42.196Z,27.50
2018-06-12T14:55:11.073Z,23.67
2018-06-12T14:57:39.590Z,24.87
2018-06-12T15:00:08.129Z,24.97
2018-06-12T15:02:36.670Z,23.07
2018-06-12T15:05:05.172Z,24.10
2018-06-12T15:07:33.928Z,22.10
2018-06-12T15:10:02.571Z,21.50
2018-06-12T15:12:31.068Z,22.30
2018-06-12T15:14:59.579Z,25.20
2018-06-12T15:17:28.048Z,24.80
2018-06-12T15:19:56.718Z,25.53
2018-06-12T15:22:25.249Z,26.40
2018-06-12T15:24:53.878Z,26.43
2018-06-12T15:27:23.604Z,26.87
2018-06-12T15:29:52.072Z,23.03
2018-06-12T15:32:20.703Z,25.40
2018-06-12T15:34:49.163Z,21.50
2018-06-12T15:37:17.633Z,23.37
2018-06-12T15:39:46.163Z,22.87
2018-06-12T15:42:14.651Z,20.63
2018-06-12T15:44:43.164Z,22.20
2018-06-12T15:47:11.703Z,22.17
2018-06-12T15:49:40.131Z,23.10
2018-06-12T15:52:08.642Z,24.57
2018-06-12T15:54:37.375Z,25.00
2018-06-12T15:57:06.195Z,24.93
2018-06-12T15:59:35.733Z,23.13
2018-06-12T16:02:04.214Z,25.70
2018-06-12T16:04:32.627Z,25.73
2018-06-12T16:07:01.075Z,26.43
2018-06-12T16:09:29.517Z,21.43
2018-06-12T16:11:58.010Z,27.47
2018-06-12T16:14:26.396Z,24.17
2018-06-12T16:16:54.901Z,21.70
2018-06-12T16:19:23.400Z,21.40
2018-06-12T16:21:51.968Z,24.67
2018-06-12T16:24:20.490Z,23.60
2018-06-12T16:26:49.608Z,23.17
2018-06-12T16:29:18.080Z,22.60
2018-06-12T16:31:46.732Z,23.43
2018-06-12T16:34:15.158Z,24.57
2018-06-12T16:36:43.620Z,23.20
2018-06-12T16:39:12.063Z,23.70
2018-06-12T16:41:41.109Z,22.13
2018-06-12T16:44:09.565Z,22.00
2018-06-12T16:46:39.000Z,24.17
2018-06-12T16:49:07.473Z,24.87
2018-06-12T16:51:35.922Z,21.90
2018-06-12T16:54:04.368Z,25.07
2018-06-12T16:56:32.976Z,20.57
2018-06-12T16:59:01.579Z,22.40
2018-06-12T17:01:29.985Z,22.30
2018-06-12T17:03:58.793Z,23.77
2018-06-12T17:06:27.313Z,24.17
2018-06-12T17:08:55.759Z,22.63
2018-06-12T17:11:24.199Z,23.80
2018-06-12T17:13:52.711Z,23.70
2018-06-12T17:16:21.223Z,24.30
2018-06-12T17:18:49.683Z,23.60
2018-06-12T17:21:18.222Z,25.17
2018-06-12T17:23:46.810Z,23.07
2018-06-12T17:26:15.522Z,23.87
2018-06-12T17:28:43.635Z,24.00
2018-06-12T17:31:13.952Z,20.63
2018-06-12T17:33:42.373Z,24.43
2018-06-12T17:36:10.825Z,22.77
2018-06-12T17:38:39.394Z,22.20
2018-06-12T17:41:07.971Z,24.17
2018-06-12T17:43:36.550Z,24.50
2018-06-12T17:46:05.173Z,22.70
2018-06-12T17:48:34.068Z,21.63
2018-06-12T17:51:02.512Z,24.37
2018-06-12T17:53:31.323Z,24.23
2018-06-12T17:55:59.916Z,23.30
2018-06-12T17:58:31.035Z,22.43
2018-06-12T18:01:00.107Z,25.27
2018-06-12T18:03:29.252Z,23.87
2018-06-12T18:05:58.001Z,25.43
2018-06-12T18:08:26.476Z,24.67
2018-06-12T18:10:56.018Z,25.27
2018-06-12T18:13:24.693Z,26.10
2018-06-12T18:15:53.529Z,25.70
2018-06-12T18:18:22.112Z,26.97
2018-06-12T18:20:50.588Z,25.40
2018-06-12T18:23:19.067Z,25.03
2018-06-12T18:25:56.449Z,23.57
2018-06-12T18:28:25.294Z,23.93
2018-06-12T18:30:53.980Z,25.00
2018-06-12T18:33:22.418Z,25.37
2018-06-12T18:35:50.900Z,26.77
2018-06-12T18:38:19.341Z,23.63
2018-06-12T18:40:48.021Z,24.13
2018-06-12T18:43:16.153Z,18.67
2018-06-12T18:45:44.622Z,26.67
2018-06-12T18:48:22.973Z,22.13
2018-06-12T18:50:51.536Z,26.07
2018-06-12T18:53:20.040Z,26.03
2018-06-12T18:55:48.650Z,26.13
2018-06-12T18:58:17.143Z,24.83
2018-06-12T19:00:45.595Z,25.03
2018-06-12T19:03:14.113Z,25.53
2018-06-12T19:05:42.708Z,26.07
2018-06-12T19:08:11.256Z,26.33
2018-06-12T19:10:39.788Z,23.20
2018-06-12T19:13:08.441Z,24.40
2018-06-12T19:15:36.907Z,25.30
2018-06-12T19:18:05.889Z,23.40
2018-06-12T19:20:34.482Z,21.70
2018-06-12T19:23:04.695Z,26.90
2018-06-12T19:25:33.340Z,23.87
2018-06-12T19:28:02.107Z,24.00
2018-06-12T19:30:30.912Z,25.60
2018-06-12T19:32:59.871Z,23.20
2018-06-12T19:35:28.948Z,24.27
2018-06-12T19:37:57.754Z,22.90
2018-06-12T19:40:26.322Z,20.80
2018-06-12T19:42:54.797Z,20.67
2018-06-12T19:45:23.331Z,20.70
2018-06-12T19:47:51.856Z,19.00
2018-06-12T19:50:20.345Z,17.33
2018-06-12T19:52:49.761Z,20.93
2018-06-12T19:55:18.779Z,18.33
2018-06-12T19:57:47.247Z,17.33
2018-06-12T20:00:15.902Z,18.83
2018-06-12T20:02:44.654Z,18.00
2018-06-12T20:05:13.443Z,17.70
2018-06-12T20:07:42.048Z,17.03
2018-06-12T20:10:10.472Z,18.03
2018-06-12T20:12:38.939Z,17.97
2018-06-12T20:15:07.465Z,19.00
2018-06-12T20:17:36.024Z,18.50
2018-06-12T20:20:05.012Z,18.67
2018-06-12T20:22:33.124Z,16.90
2018-06-12T20:25:01.827Z,17.27
2018-06-12T20:27:30.616Z,18.33
2018-06-12T20:29:59.078Z,18.70
2018-06-12T20:32:27.508Z,18.10
2018-06-12T20:34:56.097Z,20.83
2018-06-12T20:37:24.547Z,21.80
2018-06-12T20:39:53.011Z,19.13
2018-06-12T20:42:21.886Z,20.63
2018-06-12T20:44:50.417Z,18.07
2018-06-12T20:47:19.988Z,18.50
2018-06-12T20:49:48.474Z,19.23
2018-06-12T20:52:16.926Z,19.63
2018-06-12T20:54:45.448Z,19.27
2018-06-12T20:57:13.911Z,21.80
2018-06-12T20:59:42.594Z,19.60
2018-06-12T21:02:11.161Z,20.63
2018-06-12T21:04:39.350Z,19.87
2018-06-12T21:07:07.840Z,16.70
2018-06-12T21:09:36.868Z,18.90
2018-06-12T21:12:05.521Z,18.57
2018-06-12T21:14:33.967Z,20.17
2018-06-12T21:17:02.379Z,18.70
2018-06-12T21:19:30.816Z,19.87
2018-06-12T21:21:59.268Z,20.13
2018-06-12T21:24:27.850Z,20.33
2018-06-12T21:26:56.331Z,20.80
2018-06-12T21:29:24.826Z,19.63
2018-06-12T21:31:53.303Z,17.30
2018-06-12T21:34:21.764Z,18.60
2018-06-12T21:36:50.248Z,16.00
2018-06-12T21:39:18.788Z,16.90
2018-06-12T21:41:47.316Z,17.27
2018-06-12T21:44:15.891Z,17.83
2018-06-12T21:46:44.764Z,15.93
2018-06-12T21:49:13.197Z,15.53
2018-06-12T21:51:41.643Z,15.07
2018-06-12T21:54:10.216Z,13.70
2018-06-12T21:56:38.530Z,13.97
2018-06-12T21:59:06.933Z,13.70
2018-06-12T22:01:35.373Z,13.70
2018-06-12T22:04:03.885Z,14.50
2018-06-12T22:06:32.326Z,13.00
2018-06-12T22:09:00.753Z,13.43
2018-06-12T22:11:29.221Z,13.10
2018-06-12T22:13:57.665Z,14.13
2018-06-12T22:16:26.158Z,12.03
2018-06-12T22:18:55.117Z,13.33
2018-06-12T22:21:23.572Z,12.40
2018-06-12T22:23:52.036Z,11.40
2018-06-12T22:26:20.504Z,12.70
2018-06-12T22:28:48.985Z,12.53
2018-06-12T22:31:17.450Z,13.30
2018-06-12T22:33:45.859Z,12.47
2018-06-12T22:36:14.529Z,13.97
2018-06-12T22:38:42.934Z,11.57
2018-06-12T22:41:11.369Z,12.00
2018-06-12T22:43:39.831Z,11.80
2018-06-12T22:46:08.339Z,12.00
2018-06-12T22:48:36.743Z,14.03
2018-06-12T22:51:05.176Z,14.50
2018-06-12T22:53:33.808Z,13.73
2018-06-12T22:56:02.201Z,13.30
2018-06-12T22:58:30.966Z,14.10
2018-06-12T23:00:59.449Z,14.07
2018-06-12T23:03:27.877Z,15.40
2018-06-12T23:05:56.302Z,14.37
2018-06-12T23:08:24.825Z,13.80
2018-06-12T23:10:53.297Z,16.40
2018-06-12T23:13:21.762Z,16.20
2018-06-12T23:15:50.180Z,16.90
2018-06-12T23:18:18.692Z,16.67
2018-06-12T23:21:59.267Z,18.47
2018-06-12T23:24:27.779Z,15.70
2018-06-12T23:26:56.216Z,17.13
2018-06-12T23:29:24.708Z,15.50
2018-06-12T23:31:53.269Z,16.17
2018-06-12T23:34:21.715Z,14.80
2018-06-12T23:36:50.217Z,14.73
2018-06-12T23:39:18.679Z,14.73
2018-06-12T23:41:47.172Z,14.33
2018-06-12T23:44:15.640Z,12.83
2018-06-12T23:46:44.132Z,10.40
2018-06-12T23:49:12.729Z,12.80
2018-06-12T23:51:41.169Z,10.50
2018-06-12T23:54:09.636Z,10.50
2018-06-12T23:56:38.144Z,13.00
2018-06-12T23:59:06.573Z,11.27
